createdAt,value
2023-04-09T00:02:02.726Z,98610.84
2023-04-09T00:04:29.493Z,98600.59
2023-04-09T00:06:56.217Z,98609.28
2023-04-09T00:09:22.894Z,98614.69
2023-04-09T00:11:49.551Z,98610.06
2023-04-09T00:14:16.332Z,98615.38
2023-04-09T00:16:43.048Z,98612.16
2023-04-09T00:19:09.846Z,98609.22
2023-04-09T00:21:37.226Z,98602.53
2023-04-09T00:24:04.006Z,98604.69
2023-04-09T00:26:31.417Z,98598.63
2023-04-09T00:28:58.185Z,98603.84
2023-04-09T00:31:24.921Z,98594.00
2023-04-09T00:33:51.627Z,98598.53
2023-04-09T00:36:18.324Z,98599.37
2023-04-09T00:38:45.591Z,98599.53
2023-04-09T00:41:12.257Z,98597.81
2023-04-09T00:43:38.896Z,98597.22
2023-04-09T00:46:06.225Z,98596.88
2023-04-09T00:48:32.879Z,98597.78
2023-04-09T00:50:59.576Z,98598.66
2023-04-09T00:53:26.235Z,98600.94
2023-04-09T00:55:53.323Z,98599.34
2023-04-09T00:58:20.058Z,98599.34
2023-04-09T01:00:46.741Z,98606.41
2023-04-09T01:03:13.507Z,98602.78
2023-04-09T01:06:03.220Z,98598.28
2023-04-09T01:08:50.554Z,98607.53
2023-04-09T01:11:21.091Z,98600.03
2023-04-09T01:13:53.813Z,98598.47
2023-04-09T01:16:20.490Z,98595.09
2023-04-09T01:18:51.704Z,98595.38
2023-04-09T01:21:19.709Z,98601.16
2023-04-09T01:23:46.999Z,98605.75
2023-04-09T01:26:30.981Z,98601.09
2023-04-09T01:28:57.665Z,98598.31
2023-04-09T01:31:28.850Z,98593.78
2023-04-09T01:33:55.523Z,98595.81
2023-04-09T01:36:22.222Z,98591.37
2023-04-09T01:38:48.960Z,98591.59
2023-04-09T01:41:16.632Z,98599.59
2023-04-09T01:43:43.302Z,98597.16
2023-04-09T01:46:10.329Z,98594.22
2023-04-09T01:48:36.993Z,98601.94
2023-04-09T01:51:03.828Z,98601.53
2023-04-09T01:53:31.302Z,98600.41
2023-04-09T01:56:01.680Z,98600.59
2023-04-09T01:58:28.656Z,98597.94
2023-04-09T02:01:15.839Z,98593.09
2023-04-09T02:03:52.962Z,98599.03
2023-04-09T02:06:38.425Z,98600.13
2023-04-09T02:09:05.447Z,98601.50
2023-04-09T02:11:32.185Z,98596.53
2023-04-09T02:13:58.896Z,98598.28
2023-04-09T02:16:25.597Z,98597.50
2023-04-09T02:18:56.746Z,98597.50
2023-04-09T02:21:23.800Z,98601.53
2023-04-09T02:23:50.901Z,98598.28
2023-04-09T02:26:17.554Z,98591.25
2023-04-09T02:28:44.210Z,98591.44
2023-04-09T02:31:11.637Z,98590.16
2023-04-09T02:33:38.353Z,98587.97
2023-04-09T02:36:05.554Z,98588.53
2023-04-09T02:38:32.359Z,98589.72
2023-04-09T02:40:59.016Z,98584.13
2023-04-09T02:43:25.702Z,98582.72
2023-04-09T02:45:52.359Z,98584.22
2023-04-09T02:48:19.070Z,98578.91
2023-04-09T02:50:45.771Z,98575.37
2023-04-09T02:53:12.423Z,98577.81
2023-04-09T02:55:39.081Z,98579.28
2023-04-09T02:58:05.772Z,98583.19
2023-04-09T03:00:32.412Z,98591.66
2023-04-09T03:02:59.250Z,98581.75
2023-04-09T03:05:26.101Z,98574.09
2023-04-09T03:07:53.706Z,98579.56
2023-04-09T03:10:20.441Z,98582.53
2023-04-09T03:12:48.077Z,98579.12
2023-04-09T03:15:14.788Z,98583.37
2023-04-09T03:17:41.501Z,98585.00
2023-04-09T03:20:08.398Z,98587.34
2023-04-09T03:22:38.454Z,98587.31
2023-04-09T03:25:05.810Z,98577.59
2023-04-09T03:27:32.704Z,98588.47
2023-04-09T03:29:59.386Z,98580.28
2023-04-09T03:32:26.083Z,98584.44
2023-04-09T03:34:52.751Z,98583.69
2023-04-09T03:37:19.419Z,98590.66
2023-04-09T03:39:46.059Z,98590.00
2023-04-09T03:42:12.712Z,98587.59
2023-04-09T03:44:39.375Z,98584.22
2023-04-09T03:47:06.633Z,98587.62
2023-04-09T03:49:34.970Z,98585.59
2023-04-09T03:52:01.662Z,98586.56
2023-04-09T03:54:31.489Z,98598.37
2023-04-09T03:56:58.145Z,98590.94
2023-04-09T03:59:24.976Z,98595.41
2023-04-09T04:01:51.937Z,98594.34
2023-04-09T04:04:20.501Z,98595.91
2023-04-09T04:06:48.677Z,98595.31
2023-04-09T04:09:15.568Z,98596.94
2023-04-09T04:11:42.202Z,98605.59
2023-04-09T04:14:08.866Z,98601.94
2023-04-09T04:16:35.721Z,98608.72
2023-04-09T04:19:02.377Z,98608.72
2023-04-09T04:21:29.047Z,98609.81
2023-04-09T04:23:55.757Z,98608.88
2023-04-09T04:26:22.414Z,98613.72
2023-04-09T04:28:49.085Z,98606.91
2023-04-09T04:31:15.798Z,98612.00
2023-04-09T04:33:42.695Z,98616.00
2023-04-09T04:36:12.641Z,98603.88
2023-04-09T04:38:39.430Z,98603.19
2023-04-09T04:41:06.162Z,98609.78
2023-04-09T04:43:32.980Z,98607.31
2023-04-09T04:45:59.905Z,98609.22
2023-04-09T04:48:28.250Z,98611.75
2023-04-09T04:50:58.736Z,98613.41
2023-04-09T04:53:25.408Z,98618.31
2023-04-09T04:55:52.071Z,98620.94
2023-04-09T04:58:18.796Z,98622.31
2023-04-09T05:00:45.723Z,98624.13
2023-04-09T05:03:12.693Z,98622.88
2023-04-09T05:05:39.422Z,98626.28
2023-04-09T05:08:06.181Z,98624.72
2023-04-09T05:10:32.872Z,98633.06
2023-04-09T05:12:59.515Z,98626.22
2023-04-09T05:15:26.447Z,98629.59
2023-04-09T05:17:53.512Z,98626.22
2023-04-09T05:20:20.275Z,98630.34
2023-04-09T05:22:47.014Z,98626.06
2023-04-09T05:25:16.291Z,98630.03
2023-04-09T05:27:43.234Z,98629.56
2023-04-09T05:30:10.042Z,98631.22
2023-04-09T05:32:36.771Z,98630.19
2023-04-09T05:35:03.628Z,98632.19
2023-04-09T05:37:30.514Z,98633.31
2023-04-09T05:39:57.361Z,98638.63
2023-04-09T05:42:24.097Z,98641.16
2023-04-09T05:44:50.748Z,98642.00
2023-04-09T05:47:17.802Z,98642.91
2023-04-09T05:49:44.574Z,98644.31
2023-04-09T05:52:11.230Z,98648.00
2023-04-09T05:54:38.221Z,98646.59
2023-04-09T05:57:04.911Z,98651.47
2023-04-09T05:59:31.555Z,98651.41
2023-04-09T06:01:58.251Z,98649.31
2023-04-09T06:04:25.269Z,98651.66
2023-04-09T06:06:52.183Z,98655.81
2023-04-09T06:09:18.845Z,98657.47
2023-04-09T06:11:45.494Z,98656.06
2023-04-09T06:14:18.177Z,98660.69
2023-04-09T06:16:44.982Z,98666.41
2023-04-09T06:19:12.613Z,98664.75
2023-04-09T06:21:40.886Z,98660.66
2023-04-09T06:24:07.717Z,98661.34
2023-04-09T06:26:34.392Z,98665.00
2023-04-09T06:29:01.045Z,98660.47
2023-04-09T06:31:27.782Z,98659.34
2023-04-09T06:33:54.980Z,98660.69
2023-04-09T06:36:22.227Z,98659.69
2023-04-09T06:38:48.898Z,98655.16
2023-04-09T06:41:15.636Z,98665.50
2023-04-09T06:43:42.381Z,98664.34
2023-04-09T06:46:09.426Z,98660.56
2023-04-09T06:48:36.391Z,98667.19
2023-04-09T06:51:03.204Z,98655.84
2023-04-09T06:53:29.922Z,98664.22
2023-04-09T06:55:57.217Z,98667.22
2023-04-09T06:58:24.000Z,98670.16
2023-04-09T07:00:50.873Z,98670.88
2023-04-09T07:03:17.707Z,98670.97
2023-04-09T07:05:44.496Z,98678.59
2023-04-09T07:08:11.866Z,98675.47
2023-04-09T07:10:38.635Z,98674.13
2023-04-09T07:13:05.566Z,98667.31
2023-04-09T07:15:32.269Z,98668.63
2023-04-09T07:18:00.149Z,98667.13
2023-04-09T07:20:26.995Z,98674.03
2023-04-09T07:22:53.664Z,98679.31
2023-04-09T07:25:21.546Z,98682.03
2023-04-09T07:27:48.227Z,98677.00
2023-04-09T07:30:14.904Z,98672.09
2023-04-09T07:32:41.605Z,98689.75
2023-04-09T07:35:09.888Z,98678.22
2023-04-09T07:37:36.690Z,98677.75
2023-04-09T07:40:07.029Z,98680.22
2023-04-09T07:42:33.671Z,98680.28
2023-04-09T07:45:00.900Z,98682.75
2023-04-09T07:47:28.699Z,98681.41
2023-04-09T07:49:55.494Z,98677.47
2023-04-09T07:52:22.285Z,98684.69
2023-04-09T07:54:48.970Z,98678.34
2023-04-09T07:57:15.665Z,98693.91
2023-04-09T07:59:42.417Z,98686.91
2023-04-09T08:02:09.146Z,98687.47
2023-04-09T08:04:36.541Z,98683.37
2023-04-09T08:07:03.606Z,98683.91
2023-04-09T08:09:30.307Z,98691.16
2023-04-09T08:11:57.429Z,98694.03
2023-04-09T08:14:24.079Z,98690.59
2023-04-09T08:16:51.886Z,98694.66
2023-04-09T08:19:20.217Z,98701.28
2023-04-09T08:21:49.060Z,98697.97
2023-04-09T08:24:15.837Z,98698.13
2023-04-09T08:26:42.606Z,98705.44
2023-04-09T08:29:10.356Z,98714.94
2023-04-09T08:31:37.607Z,98715.66
2023-04-09T08:34:04.570Z,98711.56
2023-04-09T08:36:32.733Z,98721.22
2023-04-09T08:39:00.729Z,98716.88
2023-04-09T08:41:30.847Z,98719.31
2023-04-09T08:43:59.206Z,98712.63
2023-04-09T08:46:26.638Z,98723.16
2023-04-09T08:48:53.956Z,98732.81
2023-04-09T08:51:21.921Z,98724.00
2023-04-09T08:53:50.751Z,98713.87
2023-04-09T08:56:17.532Z,98730.59
2023-04-09T08:58:47.203Z,98726.84
2023-04-09T09:01:27.078Z,98732.56
2023-04-09T09:03:57.912Z,98731.34
2023-04-09T09:06:25.185Z,98730.88
2023-04-09T09:09:04.252Z,98740.09
2023-04-09T09:11:30.933Z,98739.56
2023-04-09T09:13:58.279Z,98734.03
2023-04-09T09:16:25.086Z,98741.00
2023-04-09T09:18:53.379Z,98736.56
2023-04-09T09:21:21.397Z,98739.91
2023-04-09T09:23:51.446Z,98740.78
2023-04-09T09:26:20.914Z,98744.13
2023-04-09T09:28:48.800Z,98740.50
2023-04-09T09:31:16.607Z,98730.81
2023-04-09T09:33:43.318Z,98733.81
2023-04-09T09:36:10.092Z,98740.88
2023-04-09T09:38:56.434Z,98734.34
2023-04-09T09:41:23.434Z,98741.44
2023-04-09T09:43:50.314Z,98745.19
2023-04-09T09:46:17.523Z,98742.13
2023-04-09T09:48:44.999Z,98738.03
2023-04-09T09:51:12.043Z,98742.16
2023-04-09T09:53:39.273Z,98742.03
2023-04-09T09:56:06.789Z,98737.88
2023-04-09T09:58:44.856Z,98744.88
2023-04-09T10:01:13.195Z,98735.13
2023-04-09T10:03:40.498Z,98734.84
2023-04-09T10:06:07.965Z,98738.44
2023-04-09T10:08:36.132Z,98738.75
2023-04-09T10:11:02.940Z,98739.25
2023-04-09T10:13:32.458Z,98739.00
2023-04-09T10:15:59.338Z,98738.16
2023-04-09T10:18:26.525Z,98734.63
2023-04-09T10:21:02.275Z,98738.38
2023-04-09T10:23:39.394Z,98731.25
2023-04-09T10:26:06.142Z,98741.69
2023-04-09T10:28:32.997Z,98743.31
2023-04-09T10:30:59.971Z,98742.41
2023-04-09T10:33:28.309Z,98739.22
2023-04-09T10:35:55.851Z,98730.81
2023-04-09T10:38:39.197Z,98738.66
2023-04-09T10:41:18.975Z,98737.72
2023-04-09T10:43:46.554Z,98737.66
2023-04-09T10:46:27.168Z,98732.31
2023-04-09T10:49:09.177Z,98725.47
2023-04-09T10:51:39.283Z,98730.63
2023-04-09T10:54:06.624Z,98732.31
2023-04-09T10:56:33.414Z,98725.00
2023-04-09T10:59:00.099Z,98730.78
2023-04-09T11:01:27.477Z,98719.91
2023-04-09T11:04:09.514Z,98733.69
2023-04-09T11:06:38.760Z,98727.44
2023-04-09T11:09:05.405Z,98716.59
2023-04-09T11:11:33.854Z,98721.19
2023-04-09T11:14:03.367Z,98719.75
2023-04-09T11:16:31.061Z,98717.56
2023-04-09T11:18:57.813Z,98726.41
2023-04-09T11:21:28.752Z,98723.16
2023-04-09T11:23:55.547Z,98724.22
2023-04-09T11:26:35.509Z,98717.50
2023-04-09T11:29:06.650Z,98711.53
2023-04-09T11:31:33.327Z,98713.47
2023-04-09T11:34:00.021Z,98725.75
2023-04-09T11:36:27.802Z,98722.63
2023-04-09T11:38:55.537Z,98713.09
2023-04-09T11:41:38.214Z,98725.25
2023-04-09T11:44:05.208Z,98720.00
2023-04-09T11:46:37.643Z,98726.81
2023-04-09T11:49:04.373Z,98728.75
2023-04-09T11:51:31.905Z,98724.47
2023-04-09T11:54:02.339Z,98724.47
2023-04-09T11:56:29.540Z,98725.88
2023-04-09T11:58:56.248Z,98719.16
2023-04-09T12:01:23.118Z,98726.16
2023-04-09T12:03:56.456Z,98722.78
2023-04-09T12:06:24.928Z,98725.81
2023-04-09T12:08:54.333Z,98733.50
2023-04-09T12:11:21.104Z,98728.69
2023-04-09T12:13:47.945Z,98727.87
2023-04-09T12:16:14.894Z,98731.09
2023-04-09T12:18:41.837Z,98734.34
2023-04-09T12:21:08.601Z,98725.63
2023-04-09T12:23:35.386Z,98726.28
2023-04-09T12:26:02.550Z,98727.00
2023-04-09T12:28:29.285Z,98727.78
2023-04-09T12:30:56.329Z,98725.78
2023-04-09T12:33:23.029Z,98723.16
2023-04-09T12:35:49.754Z,98730.50
2023-04-09T12:38:16.668Z,98726.03
2023-04-09T12:40:43.404Z,98722.09
2023-04-09T12:43:10.065Z,98723.78
2023-04-09T12:45:36.875Z,98732.41
2023-04-09T12:48:03.736Z,98721.25
2023-04-09T12:50:30.818Z,98725.28
2023-04-09T12:52:57.530Z,98719.91
2023-04-09T12:55:24.243Z,98720.00
2023-04-09T12:57:50.936Z,98722.03
2023-04-09T13:00:17.689Z,98721.78
2023-04-09T13:02:44.469Z,98722.91
2023-04-09T13:05:11.409Z,98720.72
2023-04-09T13:07:38.093Z,98723.16
2023-04-09T13:10:04.961Z,98717.97
2023-04-09T13:12:31.852Z,98721.06
2023-04-09T13:14:59.457Z,98722.59
2023-04-09T13:17:26.315Z,98718.03
2023-04-09T13:19:53.836Z,98718.53
2023-04-09T13:22:20.631Z,98720.69
2023-04-09T13:24:47.479Z,98712.56
2023-04-09T13:27:14.146Z,98718.38
2023-04-09T13:29:41.158Z,98718.22
2023-04-09T13:32:07.899Z,98715.44
2023-04-09T13:34:35.241Z,98722.94
2023-04-09T13:37:05.240Z,98713.72
2023-04-09T13:39:31.982Z,98721.78
2023-04-09T13:41:58.731Z,98716.84
2023-04-09T13:44:25.735Z,98721.81
2023-04-09T13:46:52.582Z,98722.38
2023-04-09T13:49:19.343Z,98722.09
2023-04-09T13:51:46.228Z,98717.78
2023-04-09T13:54:13.306Z,98721.41
2023-04-09T13:56:40.073Z,98719.81
2023-04-09T13:59:06.775Z,98721.37
2023-04-09T14:01:34.279Z,98713.75
2023-04-09T14:04:01.110Z,98709.56
2023-04-09T14:06:28.158Z,98716.22
2023-04-09T14:08:54.938Z,98715.19
2023-04-09T14:11:21.930Z,98711.75
2023-04-09T14:13:48.686Z,98709.62
2023-04-09T14:16:15.876Z,98713.06
2023-04-09T14:18:42.603Z,98708.91
2023-04-09T14:21:10.394Z,98709.38
2023-04-09T14:23:37.380Z,98708.38
2023-04-09T14:26:04.556Z,98708.78
2023-04-09T14:28:32.263Z,98711.88
2023-04-09T14:30:59.556Z,98699.16
2023-04-09T14:33:26.610Z,98698.09
2023-04-09T14:35:53.324Z,98696.31
2023-04-09T14:38:20.119Z,98688.88
2023-04-09T14:40:46.792Z,98688.81
2023-04-09T14:43:13.476Z,98694.69
2023-04-09T14:45:40.320Z,98686.00
2023-04-09T14:48:07.031Z,98686.66
2023-04-09T14:50:34.125Z,98682.78
2023-04-09T14:53:01.167Z,98686.34
2023-04-09T14:55:27.907Z,98684.88
2023-04-09T14:57:54.585Z,98685.78
2023-04-09T15:00:21.467Z,98681.69
2023-04-09T15:02:48.459Z,98679.31
2023-04-09T15:05:15.282Z,98674.09
2023-04-09T15:07:41.947Z,98672.78
2023-04-09T15:10:08.922Z,98676.84
2023-04-09T15:12:35.634Z,98678.53
2023-04-09T15:15:05.137Z,98676.47
2023-04-09T15:17:31.818Z,98673.16
2023-04-09T15:19:58.664Z,98674.69
2023-04-09T15:22:25.434Z,98675.41
2023-04-09T15:24:52.082Z,98671.72
2023-04-09T15:27:18.783Z,98666.94
2023-04-09T15:29:45.460Z,98663.47
2023-04-09T15:32:12.278Z,98666.13
2023-04-09T15:34:39.052Z,98661.03
2023-04-09T15:37:05.701Z,98669.44
2023-04-09T15:39:32.715Z,98668.97
2023-04-09T15:41:59.577Z,98675.94
2023-04-09T15:44:26.295Z,98670.28
2023-04-09T15:46:53.025Z,98673.94
2023-04-09T15:49:19.812Z,98670.00
2023-04-09T15:51:46.621Z,98673.00
2023-04-09T15:54:13.341Z,98671.12
2023-04-09T15:56:40.513Z,98674.13
2023-04-09T15:59:08.636Z,98665.75
2023-04-09T16:01:36.401Z,98666.97
2023-04-09T16:04:03.727Z,98664.03
2023-04-09T16:06:30.427Z,98655.81
2023-04-09T16:08:57.364Z,98662.84
2023-04-09T16:11:24.021Z,98660.97
2023-04-09T16:13:50.720Z,98664.31
2023-04-09T16:16:17.430Z,98656.88
2023-04-09T16:18:44.160Z,98656.59
2023-04-09T16:21:10.880Z,98648.84
2023-04-09T16:23:38.614Z,98653.97
2023-04-09T16:26:05.607Z,98650.00
2023-04-09T16:28:32.274Z,98649.38
2023-04-09T16:30:59.629Z,98653.84
2023-04-09T16:33:26.407Z,98658.16
2023-04-09T16:35:53.076Z,98656.94
2023-04-09T16:38:19.784Z,98649.88
2023-04-09T16:40:46.516Z,98662.00
2023-04-09T16:43:13.235Z,98656.00
2023-04-09T16:45:39.915Z,98653.25
2023-04-09T16:50:39.040Z,98656.72
2023-04-09T16:53:05.762Z,98656.78
2023-04-09T16:55:32.445Z,98658.31
2023-04-09T16:57:59.091Z,98658.66
2023-04-09T17:00:26.204Z,98655.75
2023-04-09T17:02:53.023Z,98658.16
2023-04-09T17:05:19.851Z,98660.31
2023-04-09T17:07:46.545Z,98666.47
2023-04-09T17:10:14.285Z,98669.94
2023-04-09T17:12:42.216Z,98671.94
2023-04-09T17:15:09.408Z,98671.78
2023-04-09T17:17:36.494Z,98672.50
2023-04-09T17:20:03.670Z,98673.53
2023-04-09T17:22:30.422Z,98676.06
2023-04-09T17:24:57.189Z,98679.75
2023-04-09T17:27:23.868Z,98675.13
2023-04-09T17:29:50.506Z,98666.94
2023-04-09T17:32:17.179Z,98677.38
2023-04-09T17:34:46.885Z,98678.50
2023-04-09T17:37:13.561Z,98681.44
2023-04-09T17:39:40.651Z,98681.53
2023-04-09T17:42:07.827Z,98677.72
2023-04-09T17:44:35.601Z,98679.75
2023-04-09T17:47:05.872Z,98680.69
2023-04-09T17:49:32.681Z,98685.22
2023-04-09T17:51:59.661Z,98683.81
2023-04-09T17:54:26.402Z,98688.25
2023-04-09T17:56:53.074Z,98692.47
2023-04-09T17:59:19.774Z,98699.50
2023-04-09T18:01:46.649Z,98701.66
2023-04-09T18:04:14.060Z,98703.03
2023-04-09T18:06:41.005Z,98707.81
2023-04-09T18:09:07.796Z,98718.28
2023-04-09T18:11:34.442Z,98711.56
2023-04-09T18:14:01.109Z,98714.22
2023-04-09T18:16:28.524Z,98712.47
2023-04-09T18:18:55.833Z,98724.06
2023-04-09T18:21:23.388Z,98723.19
2023-04-09T18:23:50.105Z,98728.78
2023-04-09T18:26:16.778Z,98720.16
2023-04-09T18:28:43.441Z,98720.00
2023-04-09T18:31:11.182Z,98721.69
2023-04-09T18:33:38.108Z,98733.38
2023-04-09T18:36:05.898Z,98734.72
2023-04-09T18:38:32.625Z,98737.63
2023-04-09T18:41:00.254Z,98740.88
2023-04-09T18:43:26.902Z,98743.22
2023-04-09T18:45:53.937Z,98742.72
2023-04-09T18:48:20.620Z,98729.06
2023-04-09T18:50:47.339Z,98737.84
2023-04-09T18:53:14.051Z,98742.59
2023-04-09T18:55:40.734Z,98750.87
2023-04-09T18:58:09.004Z,98741.22
2023-04-09T19:00:35.973Z,98747.81
2023-04-09T19:03:03.388Z,98749.25
2023-04-09T19:05:31.323Z,98750.28
2023-04-09T19:08:01.668Z,98759.03
2023-04-09T19:10:28.764Z,98750.78
2023-04-09T19:12:55.737Z,98761.34
2023-04-09T19:15:23.048Z,98758.47
2023-04-09T19:17:49.787Z,98759.25
2023-04-09T19:20:16.556Z,98765.22
2023-04-09T19:22:46.832Z,98763.47
2023-04-09T19:25:13.600Z,98769.94
2023-04-09T19:27:40.365Z,98764.38
2023-04-09T19:30:07.632Z,98760.75
2023-04-09T19:32:34.344Z,98770.66
2023-04-09T19:35:01.173Z,98766.59
2023-04-09T19:37:28.980Z,98769.22
2023-04-09T19:39:56.456Z,98766.13
2023-04-09T19:42:23.379Z,98765.84
2023-04-09T19:44:50.052Z,98760.47
2023-04-09T19:47:16.840Z,98767.16
2023-04-09T19:49:43.844Z,98758.16
2023-04-09T19:52:10.834Z,98764.38
2023-04-09T19:54:37.818Z,98767.75
2023-04-09T19:57:04.492Z,98767.72
2023-04-09T19:59:32.477Z,98762.41
2023-04-09T20:02:00.264Z,98758.97
2023-04-09T20:04:28.301Z,98767.28
2023-04-09T20:06:55.570Z,98763.12
2023-04-09T20:09:26.019Z,98768.00
2023-04-09T20:11:53.997Z,98759.06
2023-04-09T20:14:21.226Z,98762.72
2023-04-09T20:16:48.144Z,98768.72
2023-04-09T20:19:14.898Z,98760.91
2023-04-09T20:21:43.724Z,98766.91
2023-04-09T20:24:10.553Z,98767.38
2023-04-09T20:26:37.312Z,98762.62
2023-04-09T20:29:03.979Z,98763.81
2023-04-09T20:31:31.703Z,98763.09
2023-04-09T20:33:58.425Z,98757.97
2023-04-09T20:36:25.130Z,98762.41
2023-04-09T20:38:52.093Z,98758.34
2023-04-09T20:41:19.006Z,98758.72
2023-04-09T20:43:45.975Z,98759.09
2023-04-09T20:46:13.883Z,98760.09
2023-04-09T20:48:41.484Z,98763.34
2023-04-09T20:51:08.815Z,98761.03
2023-04-09T20:53:35.519Z,98763.44
2023-04-09T20:56:02.279Z,98770.50
2023-04-09T20:58:29.196Z,98764.03
2023-04-09T21:01:03.899Z,98762.59
2023-04-09T21:03:31.329Z,98769.50
2023-04-09T21:05:58.216Z,98763.63
2023-04-09T21:08:24.866Z,98770.44
2023-04-09T21:10:51.559Z,98765.16
2023-04-09T21:13:18.253Z,98762.25
2023-04-09T21:15:44.949Z,98765.53
2023-04-09T21:18:11.621Z,98763.44
2023-04-09T21:20:42.522Z,98757.97
2023-04-09T21:23:09.276Z,98761.25
2023-04-09T21:25:36.095Z,98763.50
2023-04-09T21:28:02.862Z,98762.81
2023-04-09T21:30:29.870Z,98765.66
2023-04-09T21:32:56.545Z,98759.59
2023-04-09T21:35:23.276Z,98763.53
2023-04-09T21:37:50.000Z,98762.94
2023-04-09T21:40:17.860Z,98760.19
2023-04-09T21:42:44.610Z,98763.75
2023-04-09T21:45:11.722Z,98765.38
2023-04-09T21:47:38.426Z,98763.09
2023-04-09T21:50:05.268Z,98769.09
2023-04-09T21:52:32.484Z,98768.16
2023-04-09T21:54:59.163Z,98769.41
2023-04-09T21:57:25.901Z,98771.88
2023-04-09T21:59:52.598Z,98772.13
2023-04-09T22:02:19.405Z,98769.53
2023-04-09T22:04:46.410Z,98773.84
2023-04-09T22:07:13.246Z,98771.28
2023-04-09T22:09:39.916Z,98771.12
2023-04-09T22:12:06.640Z,98781.28
2023-04-09T22:14:33.387Z,98775.13
2023-04-09T22:17:01.757Z,98778.56
2023-04-09T22:19:29.327Z,98784.09
2023-04-09T22:21:56.132Z,98775.09
2023-04-09T22:24:27.121Z,98774.59
2023-04-09T22:26:53.939Z,98772.59
2023-04-09T22:29:20.622Z,98783.47
2023-04-09T22:31:47.333Z,98788.09
2023-04-09T22:34:20.597Z,98782.09
2023-04-09T22:36:48.390Z,98781.16
2023-04-09T22:39:15.050Z,98786.25
2023-04-09T22:41:41.776Z,98786.25
2023-04-09T22:44:09.701Z,98784.59
2023-04-09T22:46:36.791Z,98782.00
2023-04-09T22:49:05.309Z,98781.28
2023-04-09T22:51:34.781Z,98780.41
2023-04-09T22:54:02.246Z,98779.06
2023-04-09T22:56:30.279Z,98778.22
2023-04-09T22:58:57.057Z,98782.22
2023-04-09T23:01:23.784Z,98781.94
2023-04-09T23:03:50.648Z,98787.28
2023-04-09T23:06:17.396Z,98788.97
2023-04-09T23:08:44.185Z,98783.31
2023-04-09T23:11:11.036Z,98779.13
2023-04-09T23:13:38.114Z,98790.09
2023-04-09T23:16:06.433Z,98790.16
2023-04-09T23:18:33.395Z,98789.84
2023-04-09T23:21:03.140Z,98781.31
2023-04-09T23:23:30.107Z,98779.66
2023-04-09T23:25:56.797Z,98784.41
2023-04-09T23:28:23.531Z,98770.66
2023-04-09T23:30:50.191Z,98773.19
2023-04-09T23:33:16.861Z,98772.28
2023-04-09T23:35:43.603Z,98777.12
2023-04-09T23:38:10.382Z,98779.97
2023-04-09T23:40:37.036Z,98780.78
2023-04-09T23:43:03.707Z,98770.69
2023-04-09T23:45:30.992Z,98774.19
2023-04-09T23:47:57.713Z,98769.81
2023-04-09T23:50:24.744Z,98763.88
2023-04-09T23:52:51.777Z,98768.88
2023-04-09T23:55:18.494Z,98774.87
2023-04-09T23:57:45.145Z,98761.28
